Terminal Aerodrome Forecast
Issued by NWS

Home | Current Version | Previous Version | Text Only | Print | Product List | Glossary On
Versions: 1 2 3 4 5 6 7 8 9 10 11 12 13
389
FTUS45 KGGW 100528
TAFSDY
TAF
KSDY 100528Z 1006/1106 02004KT P6SM BKN110
     FM101300 09005KT P6SM VCSH OVC022
     FM101800 11009KT 2SM -SN OVC014=

USA.gov is the U.S. government's official web portal to all federal, state and local government web resources and services.